Terminal Aerodrome Forecast
Issued by NWS Charleston, WV

Current Version | Previous Version | Graphics & Text | Print | Product List | Glossary On
Versions: 1 2 3 4 5 6 7 8 9 10 11 12 13 14 15 16 17 18 19 20 21 22 23
000
FTUS41 KRLX 181502 AAA
TAFEKN
TAF AMD
KEKN 181502Z 1815/1912 28003KT P6SM SCT250
     FM181800 29005KT P6SM VCTS SCT050CB
     FM190000 00000KT P6SM FEW250
     FM190900 00000KT 2SM BR BKN001=

USA.gov is the U.S. government's official web portal to all federal, state and local government web resources and services.